sensor_id;sensor_type;location;lat;lon;timestamp;pressure;altitude;pressure_sealevel;temperature;humidity
47082;BME280;33066;49.296;14.470;2023-08-06T00:01:26;96070.60;;;20.10;46.83
47082;BME280;33066;49.296;14.470;2023-08-06T00:03:51;96068.08;;;20.23;46.85
47082;BME280;33066;49.296;14.470;2023-08-06T00:06:16;96063.95;;;20.30;46.85
47082;BME280;33066;49.296;14.470;2023-08-06T00:08:41;96065.85;;;20.19;46.70
47082;BME280;33066;49.296;14.470;2023-08-06T00:11:06;96063.59;;;20.29;46.56
47082;BME280;33066;49.296;14.470;2023-08-06T00:13:31;96064.60;;;20.39;46.50
47082;BME280;33066;49.296;14.470;2023-08-06T00:16:10;96067.29;;;20.36;46.34
47082;BME280;33066;49.296;14.470;2023-08-06T00:18:21;96066.35;;;20.07;46.51
47082;BME280;33066;49.296;14.470;2023-08-06T00:20:46;96063.92;;;20.47;46.38
47082;BME280;33066;49.296;14.470;2023-08-06T00:23:11;96061.43;;;20.33;46.59
47082;BME280;33066;49.296;14.470;2023-08-06T00:25:37;96066.29;;;20.67;46.49
47082;BME280;33066;49.296;14.470;2023-08-06T00:28:01;96063.63;;;20.81;46.35
47082;BME280;33066;49.296;14.470;2023-08-06T00:30:26;96063.70;;;20.38;46.22
47082;BME280;33066;49.296;14.470;2023-08-06T00:32:51;96063.50;;;20.62;45.99
47082;BME280;33066;49.296;14.470;2023-08-06T00:35:17;96063.48;;;20.69;45.78
47082;BME280;33066;49.296;14.470;2023-08-06T00:37:42;96059.95;;;20.77;45.95
47082;BME280;33066;49.296;14.470;2023-08-06T00:40:07;96056.60;;;20.69;45.72
47082;BME280;33066;49.296;14.470;2023-08-06T00:42:32;96053.17;;;20.64;45.92
47082;BME280;33066;49.296;14.470;2023-08-06T00:44:57;96050.51;;;20.64;45.92
47082;BME280;33066;49.296;14.470;2023-08-06T00:47:22;96048.52;;;20.71;45.93
47082;BME280;33066;49.296;14.470;2023-08-06T00:49:47;96043.65;;;20.78;45.95
47082;BME280;33066;49.296;14.470;2023-08-06T00:52:12;96039.49;;;20.54;45.65
47082;BME280;33066;49.296;14.470;2023-08-06T00:54:37;96039.03;;;20.59;45.68
47082;BME280;33066;49.296;14.470;2023-08-06T00:57:03;96033.82;;;20.84;45.83
47082;BME280;33066;49.296;14.470;2023-08-06T00:59:28;96029.98;;;20.62;45.64
47082;BME280;33066;49.296;14.470;2023-08-06T01:01:52;96028.15;;;20.66;45.44
47082;BME280;33066;49.296;14.470;2023-08-06T01:04:17;96025.66;;;20.68;45.40
47082;BME280;33066;49.296;14.470;2023-08-06T01:06:47;96027.97;;;20.93;45.63
47082;BME280;33066;49.296;14.470;2023-08-06T01:09:16;96025.40;;;20.90;45.60
47082;BME280;33066;49.296;14.470;2023-08-06T01:11:42;96019.85;;;20.89;45.59
47082;BME280;33066;49.296;14.470;2023-08-06T01:14:02;96014.18;;;20.67;45.58
47082;BME280;33066;49.296;14.470;2023-08-06T01:16:24;96014.61;;;20.30;45.51
47082;BME280;33066;49.296;14.470;2023-08-06T01:18:48;96011.93;;;20.50;45.54
47082;BME280;33066;49.296;14.470;2023-08-06T01:21:13;96009.82;;;20.73;45.69
47082;BME280;33066;49.296;14.470;2023-08-06T01:23:38;96005.70;;;20.53;45.71
47082;BME280;33066;49.296;14.470;2023-08-06T01:26:09;96004.68;;;20.73;45.72
47082;BME280;33066;49.296;14.470;2023-08-06T01:28:36;96002.59;;;20.81;45.56
47082;BME280;33066;49.296;14.470;2023-08-06T01:30:55;95999.45;;;20.82;45.57
47082;BME280;33066;49.296;14.470;2023-08-06T01:33:19;95999.66;;;20.85;45.65
47082;BME280;33066;49.296;14.470;2023-08-06T01:35:44;95997.50;;;20.87;45.36
47082;BME280;33066;49.296;14.470;2023-08-06T01:38:08;95995.72;;;20.79;45.53
47082;BME280;33066;49.296;14.470;2023-08-06T01:40:33;95995.23;;;20.77;45.46
47082;BME280;33066;49.296;14.470;2023-08-06T01:42:59;95993.60;;;20.67;45.40
47082;BME280;33066;49.296;14.470;2023-08-06T01:45:24;95994.20;;;20.63;45.68
47082;BME280;33066;49.296;14.470;2023-08-06T01:47:49;95991.99;;;20.44;45.70
47082;BME280;33066;49.296;14.470;2023-08-06T01:50:14;95988.33;;;20.37;45.84
47082;BME280;33066;49.296;14.470;2023-08-06T01:52:39;95987.34;;;20.44;45.73
47082;BME280;33066;49.296;14.470;2023-08-06T01:55:04;95989.19;;;20.58;45.88
47082;BME280;33066;49.296;14.470;2023-08-06T01:57:29;95995.22;;;20.61;45.61
47082;BME280;33066;49.296;14.470;2023-08-06T01:59:54;96001.73;;;20.58;45.69
47082;BME280;33066;49.296;14.470;2023-08-06T02:02:19;96006.75;;;20.31;45.65
47082;BME280;33066;49.296;14.470;2023-08-06T02:04:44;96005.11;;;20.46;45.89
47082;BME280;33066;49.296;14.470;2023-08-06T02:07:09;96004.26;;;20.46;46.01
47082;BME280;33066;49.296;14.470;2023-08-06T02:09:34;96002.68;;;20.24;45.78
47082;BME280;33066;49.296;14.470;2023-08-06T02:12:00;95999.90;;;20.52;45.89
47082;BME280;33066;49.296;14.470;2023-08-06T02:14:24;95998.21;;;20.09;45.89
47082;BME280;33066;49.296;14.470;2023-08-06T02:16:49;95993.95;;;20.25;45.95
47082;BME280;33066;49.296;14.470;2023-08-06T02:19:15;95994.41;;;20.25;46.08
47082;BME280;33066;49.296;14.470;2023-08-06T02:21:40;95992.44;;;20.45;46.09
47082;BME280;33066;49.296;14.470;2023-08-06T02:24:05;95991.54;;;20.27;45.97
47082;BME280;33066;49.296;14.470;2023-08-06T02:26:30;95990.69;;;20.17;46.23
47082;BME280;33066;49.296;14.470;2023-08-06T02:28:55;95988.52;;;20.30;46.26
47082;BME280;33066;49.296;14.470;2023-08-06T02:31:20;95988.27;;;20.61;46.33
47082;BME280;33066;49.296;14.470;2023-08-06T02:33:45;95981.50;;;20.09;46.31
47082;BME280;33066;49.296;14.470;2023-08-06T02:36:10;95981.64;;;20.11;46.51
47082;BME280;33066;49.296;14.470;2023-08-06T02:38:35;95977.26;;;20.06;46.52
47082;BME280;33066;49.296;14.470;2023-08-06T02:41:02;95970.92;;;20.01;46.56
47082;BME280;33066;49.296;14.470;2023-08-06T02:43:25;95968.03;;;20.24;46.57
47082;BME280;33066;49.296;14.470;2023-08-06T02:45:50;95966.61;;;19.96;46.67
47082;BME280;33066;49.296;14.470;2023-08-06T02:48:15;95962.52;;;20.11;46.75
47082;BME280;33066;49.296;14.470;2023-08-06T02:50:41;95962.81;;;20.03;46.60
47082;BME280;33066;49.296;14.470;2023-08-06T02:53:06;95963.01;;;20.05;46.65
47082;BME280;33066;49.296;14.470;2023-08-06T02:55:30;95965.67;;;20.16;46.55
47082;BME280;33066;49.296;14.470;2023-08-06T02:57:56;95969.79;;;20.39;46.55
47082;BME280;33066;49.296;14.470;2023-08-06T03:00:21;95966.96;;;20.17;46.49
47082;BME280;33066;49.296;14.470;2023-08-06T03:02:46;95964.20;;;20.17;46.44
47082;BME280;33066;49.296;14.470;2023-08-06T03:05:11;95960.76;;;20.25;46.28
47082;BME280;33066;49.296;14.470;2023-08-06T03:07:36;95955.66;;;20.17;46.53
47082;BME280;33066;49.296;14.470;2023-08-06T03:10:02;95950.03;;;20.44;46.37
47082;BME280;33066;49.296;14.470;2023-08-06T03:13:01;95946.47;;;20.61;45.78
47082;BME280;33066;49.296;14.470;2023-08-06T03:15:26;95946.00;;;20.14;45.96
47082;BME280;33066;49.296;14.470;2023-08-06T03:17:51;95946.58;;;20.43;46.21
47082;BME280;33066;49.296;14.470;2023-08-06T03:20:16;95946.29;;;20.38;46.14
47082;BME280;33066;49.296;14.470;2023-08-06T03:22:41;95946.40;;;20.17;46.01
47082;BME280;33066;49.296;14.470;2023-08-06T03:25:07;95947.07;;;20.38;46.16
47082;BME280;33066;49.296;14.470;2023-08-06T03:27:31;95949.10;;;20.36;46.05
47082;BME280;33066;49.296;14.470;2023-08-06T03:29:56;95948.38;;;20.38;46.01
47082;BME280;33066;49.296;14.470;2023-08-06T03:32:21;95941.74;;;20.32;46.14
47082;BME280;33066;49.296;14.470;2023-08-06T03:34:46;95936.01;;;20.32;46.14
47082;BME280;33066;49.296;14.470;2023-08-06T03:37:11;95934.09;;;20.40;46.10
47082;BME280;33066;49.296;14.470;2023-08-06T03:39:36;95929.52;;;20.43;46.20
47082;BME280;33066;49.296;14.470;2023-08-06T03:42:02;95926.38;;;20.43;46.11
47082;BME280;33066;49.296;14.470;2023-08-06T03:44:27;95925.02;;;20.33;46.06
47082;BME280;33066;49.296;14.470;2023-08-06T03:46:53;95922.32;;;20.26;46.28
47082;BME280;33066;49.296;14.470;2023-08-06T03:49:17;95920.71;;;20.38;46.36
47082;BME280;33066;49.296;14.470;2023-08-06T03:51:42;95920.08;;;20.48;46.35
47082;BME280;33066;49.296;14.470;2023-08-06T03:54:07;95916.32;;;20.55;46.24
47082;BME280;33066;49.296;14.470;2023-08-06T03:56:33;95908.71;;;20.66;46.08
47082;BME280;33066;49.296;14.470;2023-08-06T03:58:58;95906.78;;;20.64;45.88
47082;BME280;33066;49.296;14.470;2023-08-06T04:01:23;95904.97;;;20.43;45.60
47082;BME280;33066;49.296;14.470;2023-08-06T04:03:48;95899.07;;;20.71;45.64
47082;BME280;33066;49.296;14.470;2023-08-06T04:06:13;95892.39;;;20.71;45.59
47082;BME280;33066;49.296;14.470;2023-08-06T04:08:38;95888.89;;;20.48;45.45
47082;BME280;33066;49.296;14.470;2023-08-06T04:11:03;95890.36;;;20.23;45.77
47082;BME280;33066;49.296;14.470;2023-08-06T04:13:28;95886.15;;;20.72;45.68
47082;BME280;33066;49.296;14.470;2023-08-06T04:15:53;95885.51;;;20.73;45.70
47082;BME280;33066;49.296;14.470;2023-08-06T04:18:18;95883.68;;;20.54;45.65
47082;BME280;33066;49.296;14.470;2023-08-06T04:20:43;95880.10;;;20.75;45.50
47082;BME280;33066;49.296;14.470;2023-08-06T04:23:08;95881.36;;;20.69;45.51
47082;BME280;33066;49.296;14.470;2023-08-06T04:25:33;95885.64;;;20.45;45.62
47082;BME280;33066;49.296;14.470;2023-08-06T04:27:58;95887.54;;;20.48;45.64
47082;BME280;33066;49.296;14.470;2023-08-06T04:30:23;95890.73;;;20.70;45.77
47082;BME280;33066;49.296;14.470;2023-08-06T04:32:49;95893.02;;;20.73;45.65
47082;BME280;33066;49.296;14.470;2023-08-06T04:35:14;95894.90;;;20.77;45.54
47082;BME280;33066;49.296;14.470;2023-08-06T04:37:38;95896.38;;;20.71;45.45
47082;BME280;33066;49.296;14.470;2023-08-06T04:40:04;95898.24;;;20.52;45.50
47082;BME280;33066;49.296;14.470;2023-08-06T04:42:29;95898.58;;;20.75;45.54
47082;BME280;33066;49.296;14.470;2023-08-06T04:44:54;95897.03;;;20.65;45.57
47082;BME280;33066;49.296;14.470;2023-08-06T04:47:19;95892.55;;;20.66;45.45
47082;BME280;33066;49.296;14.470;2023-08-06T04:49:44;95890.73;;;20.66;45.68
47082;BME280;33066;49.296;14.470;2023-08-06T04:52:09;95886.54;;;20.49;45.67
47082;BME280;33066;49.296;14.470;2023-08-06T04:54:34;95887.81;;;20.72;45.36
47082;BME280;33066;49.296;14.470;2023-08-06T04:56:59;95885.84;;;20.65;45.46
47082;BME280;33066;49.296;14.470;2023-08-06T04:59:24;95884.46;;;20.70;45.38
47082;BME280;33066;49.296;14.470;2023-08-06T05:01:49;95880.54;;;20.31;45.65
47082;BME280;33066;49.296;14.470;2023-08-06T05:04:14;95879.13;;;20.40;45.69
47082;BME280;33066;49.296;14.470;2023-08-06T05:06:39;95885.71;;;20.43;45.79
47082;BME280;33066;49.296;14.470;2023-08-06T05:09:04;95881.54;;;20.45;45.79
47082;BME280;33066;49.296;14.470;2023-08-06T05:11:29;95881.96;;;20.39;45.85
47082;BME280;33066;49.296;14.470;2023-08-06T05:13:55;95882.23;;;20.35;46.18
47082;BME280;33066;49.296;14.470;2023-08-06T05:16:20;95874.91;;;20.42;45.78
47082;BME280;33066;49.296;14.470;2023-08-06T05:18:45;95871.33;;;20.47;45.85
47082;BME280;33066;49.296;14.470;2023-08-06T05:21:10;95872.91;;;20.17;45.83
47082;BME280;33066;49.296;14.470;2023-08-06T05:23:35;95870.98;;;20.84;45.52
47082;BME280;33066;49.296;14.470;2023-08-06T05:26:00;95869.52;;;20.75;45.58
47082;BME280;33066;49.296;14.470;2023-08-06T05:28:25;95875.29;;;20.69;45.58
47082;BME280;33066;49.296;14.470;2023-08-06T05:30:50;95876.98;;;20.66;45.67
47082;BME280;33066;49.296;14.470;2023-08-06T05:33:15;95876.95;;;20.57;45.72
47082;BME280;33066;49.296;14.470;2023-08-06T05:35:41;95876.96;;;20.53;46.02
47082;BME280;33066;49.296;14.470;2023-08-06T05:38:05;95876.94;;;20.53;45.77
47082;BME280;33066;49.296;14.470;2023-08-06T05:40:33;95877.54;;;20.57;46.08
47082;BME280;33066;49.296;14.470;2023-08-06T05:42:56;95873.37;;;20.56;46.05
47082;BME280;33066;49.296;14.470;2023-08-06T05:45:21;95869.84;;;20.49;46.10
47082;BME280;33066;49.296;14.470;2023-08-06T05:47:47;95865.35;;;20.33;46.19
47082;BME280;33066;49.296;14.470;2023-08-06T05:50:11;95866.56;;;20.34;46.27
47082;BME280;33066;49.296;14.470;2023-08-06T05:52:36;95865.41;;;20.33;46.20
47082;BME280;33066;49.296;14.470;2023-08-06T05:55:01;95865.28;;;20.20;46.33
47082;BME280;33066;49.296;14.470;2023-08-06T05:57:26;95858.88;;;20.19;46.34
47082;BME280;33066;49.296;14.470;2023-08-06T05:59:52;95862.34;;;20.16;46.62
47082;BME280;33066;49.296;14.470;2023-08-06T06:02:17;95863.87;;;20.17;46.67
47082;BME280;33066;49.296;14.470;2023-08-06T06:04:42;95860.79;;;20.30;46.61
47082;BME280;33066;49.296;14.470;2023-08-06T06:07:08;95866.33;;;20.31;46.64
47082;BME280;33066;49.296;14.470;2023-08-06T06:09:33;95867.42;;;20.23;46.35
47082;BME280;33066;49.296;14.470;2023-08-06T06:11:58;95861.51;;;20.25;46.35
47082;BME280;33066;49.296;14.470;2023-08-06T06:14:24;95862.82;;;20.22;46.50
47082;BME280;33066;49.296;14.470;2023-08-06T06:16:50;95859.84;;;20.49;46.50
47082;BME280;33066;49.296;14.470;2023-08-06T06:19:15;95853.22;;;20.33;46.65
47082;BME280;33066;49.296;14.470;2023-08-06T06:21:40;95850.25;;;20.36;46.40
47082;BME280;33066;49.296;14.470;2023-08-06T06:24:05;95848.00;;;20.37;46.19
47082;BME280;33066;49.296;14.470;2023-08-06T06:26:30;95851.69;;;20.22;46.16
47082;BME280;33066;49.296;14.470;2023-08-06T06:28:55;95857.07;;;20.11;46.47
47082;BME280;33066;49.296;14.470;2023-08-06T06:31:20;95859.36;;;20.07;46.68
47082;BME280;33066;49.296;14.470;2023-08-06T06:33:45;95860.95;;;19.97;46.73
47082;BME280;33066;49.296;14.470;2023-08-06T06:36:10;95864.36;;;20.08;46.97
47082;BME280;33066;49.296;14.470;2023-08-06T06:38:36;95866.04;;;20.16;46.67
47082;BME280;33066;49.296;14.470;2023-08-06T06:41:01;95862.70;;;20.31;46.48
47082;BME280;33066;49.296;14.470;2023-08-06T06:43:26;95856.16;;;20.34;46.53
47082;BME280;33066;49.296;14.470;2023-08-06T06:45:53;95853.26;;;20.39;46.41
47082;BME280;33066;49.296;14.470;2023-08-06T06:48:16;95855.92;;;20.48;46.12
47082;BME280;33066;49.296;14.470;2023-08-06T06:50:42;95857.36;;;20.32;46.22
47082;BME280;33066;49.296;14.470;2023-08-06T06:53:07;95856.77;;;20.28;46.15
47082;BME280;33066;49.296;14.470;2023-08-06T06:55:32;95857.64;;;20.29;46.40
47082;BME280;33066;49.296;14.470;2023-08-06T06:57:57;95858.42;;;20.37;46.50
47082;BME280;33066;49.296;14.470;2023-08-06T07:00:22;95854.42;;;20.35;46.18
47082;BME280;33066;49.296;14.470;2023-08-06T07:02:47;95857.80;;;20.15;46.39
47082;BME280;33066;49.296;14.470;2023-08-06T07:05:12;95860.50;;;20.31;46.27
47082;BME280;33066;49.296;14.470;2023-08-06T07:07:37;95871.21;;;20.29;46.31
47082;BME280;33066;49.296;14.470;2023-08-06T07:10:02;95867.05;;;20.26;46.22
47082;BME280;33066;49.296;14.470;2023-08-06T07:12:27;95874.24;;;20.32;46.13
47082;BME280;33066;49.296;14.470;2023-08-06T07:14:52;95873.66;;;19.98;46.18
47082;BME280;33066;49.296;14.470;2023-08-06T07:17:17;95872.40;;;20.25;46.16
47082;BME280;33066;49.296;14.470;2023-08-06T07:19:42;95873.30;;;20.34;46.17
47082;BME280;33066;49.296;14.470;2023-08-06T07:22:08;95871.36;;;20.36;45.94
47082;BME280;33066;49.296;14.470;2023-08-06T07:24:33;95870.87;;;20.44;46.14
47082;BME280;33066;49.296;14.470;2023-08-06T07:27:00;95863.85;;;20.36;45.97
47082;BME280;33066;49.296;14.470;2023-08-06T07:29:23;95863.40;;;20.25;45.95
47082;BME280;33066;49.296;14.470;2023-08-06T07:31:48;95862.26;;;20.21;46.07
47082;BME280;33066;49.296;14.470;2023-08-06T07:34:13;95864.10;;;20.21;45.90
47082;BME280;33066;49.296;14.470;2023-08-06T07:36:38;95863.72;;;20.24;45.56
47082;BME280;33066;49.296;14.470;2023-08-06T07:39:05;95864.76;;;20.17;45.73
47082;BME280;33066;49.296;14.470;2023-08-06T07:41:28;95865.32;;;20.01;45.70
47082;BME280;33066;49.296;14.470;2023-08-06T07:43:54;95867.07;;;19.98;45.54
47082;BME280;33066;49.296;14.470;2023-08-06T07:46:19;95862.11;;;20.09;45.51
47082;BME280;33066;49.296;14.470;2023-08-06T07:48:44;95857.82;;;20.20;45.05
47082;BME280;33066;49.296;14.470;2023-08-06T07:51:09;95857.14;;;20.19;44.90
47082;BME280;33066;49.296;14.470;2023-08-06T07:53:34;95850.81;;;20.27;45.09
47082;BME280;33066;49.296;14.470;2023-08-06T07:55:59;95849.95;;;20.23;44.70
47082;BME280;33066;49.296;14.470;2023-08-06T07:58:27;95858.45;;;20.17;45.36
47082;BME280;33066;49.296;14.470;2023-08-06T08:00:51;95860.87;;;20.13;44.84
47082;BME280;33066;49.296;14.470;2023-08-06T08:03:15;95863.16;;;20.09;44.81
47082;BME280;33066;49.296;14.470;2023-08-06T08:05:40;95867.46;;;20.22;44.65
47082;BME280;33066;49.296;14.470;2023-08-06T08:08:05;95870.83;;;20.26;44.68
47082;BME280;33066;49.296;14.470;2023-08-06T08:10:32;95866.87;;;20.18;44.72
47082;BME280;33066;49.296;14.470;2023-08-06T08:12:56;95867.90;;;20.35;44.50
47082;BME280;33066;49.296;14.470;2023-08-06T08:15:21;95863.20;;;20.38;44.54
47082;BME280;33066;49.296;14.470;2023-08-06T08:17:46;95862.17;;;20.47;44.51
47082;BME280;33066;49.296;14.470;2023-08-06T08:20:11;95858.76;;;20.32;44.48
47082;BME280;33066;49.296;14.470;2023-08-06T08:22:38;95857.48;;;20.72;44.46
47082;BME280;33066;49.296;14.470;2023-08-06T08:25:01;95853.31;;;20.86;44.36
47082;BME280;33066;49.296;14.470;2023-08-06T08:27:27;95851.31;;;20.87;44.50
47082;BME280;33066;49.296;14.470;2023-08-06T08:29:52;95845.38;;;20.87;44.34
47082;BME280;33066;49.296;14.470;2023-08-06T08:32:17;95840.69;;;20.77;44.01
47082;BME280;33066;49.296;14.470;2023-08-06T08:34:42;95840.28;;;20.87;43.83
47082;BME280;33066;49.296;14.470;2023-08-06T08:37:08;95833.73;;;20.94;44.10
47082;BME280;33066;49.296;14.470;2023-08-06T08:39:34;95826.49;;;21.18;43.92
47082;BME280;33066;49.296;14.470;2023-08-06T08:41:58;95828.12;;;20.70;43.96
47082;BME280;33066;49.296;14.470;2023-08-06T08:44:24;95823.64;;;20.90;43.75
47082;BME280;33066;49.296;14.470;2023-08-06T08:46:49;95820.35;;;21.15;44.15
47082;BME280;33066;49.296;14.470;2023-08-06T08:49:14;95818.26;;;21.23;43.95
47082;BME280;33066;49.296;14.470;2023-08-06T08:51:41;95825.10;;;21.21;43.99
47082;BME280;33066;49.296;14.470;2023-08-06T08:54:07;95819.49;;;21.15;44.22
47082;BME280;33066;49.296;14.470;2023-08-06T08:56:30;95820.90;;;20.92;43.88
47082;BME280;33066;49.296;14.470;2023-08-06T08:58:54;95821.04;;;21.13;43.30
47082;BME280;33066;49.296;14.470;2023-08-06T09:01:20;95822.59;;;21.07;43.54
47082;BME280;33066;49.296;14.470;2023-08-06T09:03:45;95817.27;;;20.73;43.28
47082;BME280;33066;49.296;14.470;2023-08-06T09:06:11;95817.25;;;21.00;43.35
47082;BME280;33066;49.296;14.470;2023-08-06T09:08:39;95822.81;;;20.78;42.96
47082;BME280;33066;49.296;14.470;2023-08-06T09:11:01;95812.16;;;20.91;43.64
47082;BME280;33066;49.296;14.470;2023-08-06T09:13:26;95819.67;;;20.73;43.69
47082;BME280;33066;49.296;14.470;2023-08-06T09:15:50;95806.89;;;20.89;43.33
47082;BME280;33066;49.296;14.470;2023-08-06T09:18:24;95814.00;;;20.92;43.45
47082;BME280;33066;49.296;14.470;2023-08-06T09:20:41;95813.45;;;20.65;43.73
47082;BME280;33066;49.296;14.470;2023-08-06T09:23:07;95809.52;;;20.97;43.60
47082;BME280;33066;49.296;14.470;2023-08-06T09:25:30;95805.62;;;20.85;42.98
47082;BME280;33066;49.296;14.470;2023-08-06T09:27:56;95801.10;;;21.10;43.32
47082;BME280;33066;49.296;14.470;2023-08-06T09:30:30;95805.34;;;21.16;43.05
47082;BME280;33066;49.296;14.470;2023-08-06T09:32:48;95800.11;;;20.74;42.13
47082;BME280;33066;49.296;14.470;2023-08-06T09:35:17;95813.90;;;21.00;41.93
47082;BME280;33066;49.296;14.470;2023-08-06T09:37:37;95800.45;;;20.66;42.66
47082;BME280;33066;49.296;14.470;2023-08-06T09:40:02;95797.09;;;20.78;42.42
47082;BME280;33066;49.296;14.470;2023-08-06T09:42:31;95795.72;;;21.33;42.39
47082;BME280;33066;49.296;14.470;2023-08-06T09:45:05;95796.83;;;21.52;41.97
47082;BME280;33066;49.296;14.470;2023-08-06T09:47:18;95785.78;;;20.84;41.49
47082;BME280;33066;49.296;14.470;2023-08-06T09:49:43;95788.04;;;21.03;41.69
47082;BME280;33066;49.296;14.470;2023-08-06T09:52:10;95793.88;;;21.03;41.50
47082;BME280;33066;49.296;14.470;2023-08-06T09:54:32;95795.31;;;21.18;41.60
47082;BME280;33066;49.296;14.470;2023-08-06T09:56:57;95790.87;;;20.84;41.86
47082;BME280;33066;49.296;14.470;2023-08-06T09:59:23;95790.92;;;21.13;42.00
47082;BME280;33066;49.296;14.470;2023-08-06T10:01:47;95787.38;;;21.09;42.05
47082;BME280;33066;49.296;14.470;2023-08-06T10:04:14;95792.15;;;21.35;42.08
47082;BME280;33066;49.296;14.470;2023-08-06T10:06:38;95788.65;;;21.27;41.84
47082;BME280;33066;49.296;14.470;2023-08-06T10:09:04;95791.78;;;21.51;41.78
47082;BME280;33066;49.296;14.470;2023-08-06T10:11:29;95790.47;;;21.50;41.76
47082;BME280;33066;49.296;14.470;2023-08-06T10:13:56;95793.63;;;21.34;41.36
47082;BME280;33066;49.296;14.470;2023-08-06T10:16:18;95797.29;;;21.23;41.54
47082;BME280;33066;49.296;14.470;2023-08-06T10:18:43;95793.91;;;21.32;41.36
47082;BME280;33066;49.296;14.470;2023-08-06T10:21:08;95793.20;;;21.23;41.66
47082;BME280;33066;49.296;14.470;2023-08-06T10:23:33;95796.79;;;20.80;41.30
47082;BME280;33066;49.296;14.470;2023-08-06T10:25:59;95792.83;;;21.11;42.03
47082;BME280;33066;49.296;14.470;2023-08-06T10:30:48;95792.67;;;21.29;41.43
47082;BME280;33066;49.296;14.470;2023-08-06T10:33:13;95794.27;;;21.00;41.59
47082;BME280;33066;49.296;14.470;2023-08-06T10:35:41;95792.11;;;21.32;41.56
47082;BME280;33066;49.296;14.470;2023-08-06T10:38:07;95790.88;;;21.67;41.77
47082;BME280;33066;49.296;14.470;2023-08-06T10:40:28;95791.37;;;21.74;41.55
47082;BME280;33066;49.296;14.470;2023-08-06T10:42:53;95784.61;;;21.53;40.96
47082;BME280;33066;49.296;14.470;2023-08-06T10:45:19;95786.40;;;21.92;41.23
47082;BME280;33066;49.296;14.470;2023-08-06T10:47:43;95784.16;;;21.76;40.85
47082;BME280;33066;49.296;14.470;2023-08-06T10:50:14;95781.35;;;22.05;40.51
47082;BME280;33066;49.296;14.470;2023-08-06T10:52:33;95786.29;;;22.01;40.09
47082;BME280;33066;49.296;14.470;2023-08-06T10:54:58;95783.34;;;21.93;40.08
47082;BME280;33066;49.296;14.470;2023-08-06T10:57:24;95785.39;;;21.91;40.38
47082;BME280;33066;49.296;14.470;2023-08-06T10:59:48;95784.72;;;21.98;40.36
47082;BME280;33066;49.296;14.470;2023-08-06T11:02:13;95784.94;;;21.54;39.98
47082;BME280;33066;49.296;14.470;2023-08-06T11:04:38;95783.52;;;21.65;40.20
47082;BME280;33066;49.296;14.470;2023-08-06T11:07:04;95784.38;;;21.59;40.57
47082;BME280;33066;49.296;14.470;2023-08-06T11:09:30;95783.23;;;21.36;40.91
47082;BME280;33066;49.296;14.470;2023-08-06T11:11:53;95783.31;;;21.60;40.69
47082;BME280;33066;49.296;14.470;2023-08-06T11:14:19;95783.94;;;21.72;40.62
47082;BME280;33066;49.296;14.470;2023-08-06T11:16:44;95777.56;;;21.95;40.50
47082;BME280;33066;49.296;14.470;2023-08-06T11:19:09;95778.16;;;21.81;40.87
47082;BME280;33066;49.296;14.470;2023-08-06T11:21:34;95785.66;;;21.90;40.66
47082;BME280;33066;49.296;14.470;2023-08-06T11:23:59;95783.39;;;21.86;39.94
47082;BME280;33066;49.296;14.470;2023-08-06T11:26:26;95779.46;;;21.66;39.91
47082;BME280;33066;49.296;14.470;2023-08-06T11:28:49;95781.78;;;21.99;39.85
47082;BME280;33066;49.296;14.470;2023-08-06T11:31:20;95781.37;;;22.07;39.68
47082;BME280;33066;49.296;14.470;2023-08-06T11:33:41;95779.82;;;22.24;39.29
47082;BME280;33066;49.296;14.470;2023-08-06T11:36:04;95779.62;;;21.93;39.18
47082;BME280;33066;49.296;14.470;2023-08-06T11:38:29;95774.69;;;22.22;38.95
47082;BME280;33066;49.296;14.470;2023-08-06T11:40:54;95775.76;;;22.01;38.82
47082;BME280;33066;49.296;14.470;2023-08-06T11:43:20;95773.40;;;22.11;39.02
47082;BME280;33066;49.296;14.470;2023-08-06T11:45:44;95780.07;;;21.96;39.20
47082;BME280;33066;49.296;14.470;2023-08-06T11:48:09;95780.31;;;21.94;39.34
47082;BME280;33066;49.296;14.470;2023-08-06T11:50:37;95782.68;;;22.04;39.75
47082;BME280;33066;49.296;14.470;2023-08-06T11:53:00;95781.98;;;22.00;39.43
47082;BME280;33066;49.296;14.470;2023-08-06T11:55:25;95776.59;;;22.08;39.53
47082;BME280;33066;49.296;14.470;2023-08-06T11:57:50;95772.57;;;21.61;39.41
47082;BME280;33066;49.296;14.470;2023-08-06T12:00:15;95777.63;;;21.86;39.75
47082;BME280;33066;49.296;14.470;2023-08-06T12:02:41;95770.22;;;21.80;39.44
47082;BME280;33066;49.296;14.470;2023-08-06T12:05:10;95771.17;;;21.74;39.58
47082;BME280;33066;49.296;14.470;2023-08-06T12:07:31;95773.42;;;21.49;39.78
47082;BME280;33066;49.296;14.470;2023-08-06T12:09:55;95769.55;;;21.85;39.74
47082;BME280;33066;49.296;14.470;2023-08-06T12:12:20;95769.73;;;21.96;39.83
47082;BME280;33066;49.296;14.470;2023-08-06T12:14:45;95765.04;;;22.18;39.95
47082;BME280;33066;49.296;14.470;2023-08-06T12:17:10;95765.04;;;22.22;39.83
47082;BME280;33066;49.296;14.470;2023-08-06T12:19:37;95759.34;;;22.21;39.05
47082;BME280;33066;49.296;14.470;2023-08-06T12:22:00;95759.11;;;22.59;38.77
47082;BME280;33066;49.296;14.470;2023-08-06T12:24:25;95754.91;;;22.28;38.69
47082;BME280;33066;49.296;14.470;2023-08-06T12:26:50;95750.83;;;22.62;38.59
47082;BME280;33066;49.296;14.470;2023-08-06T12:29:16;95753.17;;;22.99;38.34
47082;BME280;33066;49.296;14.470;2023-08-06T12:31:42;95750.92;;;23.21;37.44
47082;BME280;33066;49.296;14.470;2023-08-06T12:34:07;95748.72;;;23.19;37.68
47082;BME280;33066;49.296;14.470;2023-08-06T12:36:33;95743.31;;;23.36;37.46
47082;BME280;33066;49.296;14.470;2023-08-06T12:38:59;95741.57;;;23.62;37.18
47082;BME280;33066;49.296;14.470;2023-08-06T12:41:24;95745.93;;;23.60;36.99